createdAt,value
2022-08-25T00:01:37.619Z,26.57
2022-08-25T00:03:43.520Z,26.69
2022-08-25T00:05:47.700Z,26.62
2022-08-25T00:07:52.204Z,26.72
2022-08-25T00:09:56.936Z,26.83
2022-08-25T00:12:00.574Z,26.89
2022-08-25T00:14:07.119Z,27.00
2022-08-25T00:16:11.427Z,27.02
2022-08-25T00:18:19.793Z,27.05
2022-08-25T00:20:23.556Z,27.00
2022-08-25T00:22:27.056Z,26.98
2022-08-25T00:24:30.869Z,26.96
2022-08-25T00:26:39.040Z,27.02
2022-08-25T00:28:42.428Z,27.01
2022-08-25T00:30:46.174Z,26.90
2022-08-25T00:32:55.472Z,26.86
2022-08-25T00:35:00.903Z,26.77
2022-08-25T00:37:07.168Z,26.69
2022-08-25T00:39:11.345Z,26.57
2022-08-25T00:41:19.802Z,26.62
2022-08-25T00:43:27.008Z,26.57
2022-08-25T00:45:30.388Z,26.57
2022-08-25T00:47:33.872Z,26.47
2022-08-25T00:49:40.020Z,26.54
2022-08-25T00:51:48.254Z,26.50
2022-08-25T00:53:52.007Z,26.46
2022-08-25T00:55:55.492Z,26.41
2022-08-25T00:58:05.260Z,26.31
2022-08-25T01:00:15.952Z,26.31
2022-08-25T01:02:21.268Z,26.30
2022-08-25T01:04:25.472Z,26.15
2022-08-25T01:06:31.085Z,26.15
2022-08-25T01:08:35.051Z,26.11
2022-08-25T01:10:42.407Z,26.19
2022-08-25T01:12:46.614Z,26.22
2022-08-25T01:14:52.338Z,26.20
2022-08-25T01:16:58.137Z,26.18
2022-08-25T01:19:01.753Z,26.16
2022-08-25T01:21:06.778Z,25.96
2022-08-25T01:23:10.718Z,25.79
2022-08-25T01:25:24.685Z,25.76
2022-08-25T01:27:28.286Z,25.63
2022-08-25T01:29:32.451Z,25.59
2022-08-25T01:31:37.975Z,25.53
2022-08-25T01:33:42.633Z,25.55
2022-08-25T01:35:47.161Z,25.70
2022-08-25T01:37:51.869Z,25.75
2022-08-25T01:39:55.304Z,25.77
2022-08-25T01:42:20.040Z,25.79
2022-08-25T01:44:23.407Z,25.65
2022-08-25T01:46:27.177Z,25.66
2022-08-25T01:48:32.806Z,25.68
2022-08-25T01:50:36.415Z,25.66
2022-08-25T01:52:50.978Z,25.67
2022-08-25T01:54:55.775Z,25.64
2022-08-25T01:56:59.852Z,25.64
2022-08-25T01:59:03.269Z,25.61
2022-08-25T02:01:09.627Z,25.51
2022-08-25T02:03:18.552Z,25.50
2022-08-25T02:05:23.667Z,25.48
2022-08-25T02:07:27.491Z,25.33
2022-08-25T02:09:31.573Z,25.36
2022-08-25T02:11:37.710Z,25.21
2022-08-25T02:13:42.340Z,25.26
2022-08-25T02:15:50.371Z,25.17
2022-08-25T02:17:53.904Z,25.13
2022-08-25T02:19:57.587Z,25.00
2022-08-25T02:22:01.777Z,24.98
2022-08-25T02:24:06.462Z,25.06
2022-08-25T02:26:10.904Z,24.86
2022-08-25T02:28:16.011Z,24.93
2022-08-25T02:30:19.724Z,24.78
2022-08-25T02:32:23.199Z,24.75
2022-08-25T02:34:26.599Z,24.78
2022-08-25T02:36:30.560Z,24.68
2022-08-25T02:38:34.574Z,24.66
2022-08-25T02:40:38.058Z,24.74
2022-08-25T02:42:42.732Z,24.84
2022-08-25T02:44:48.137Z,24.90
2022-08-25T02:46:51.581Z,24.80
2022-08-25T02:48:55.619Z,24.72
2022-08-25T02:51:02.269Z,24.83
2022-08-25T02:53:05.791Z,24.87
2022-08-25T02:55:14.134Z,24.92
2022-08-25T02:57:18.096Z,24.87
2022-08-25T02:59:21.508Z,24.80
2022-08-25T03:01:28.903Z,24.72
2022-08-25T03:03:36.346Z,24.66
2022-08-25T03:05:42.923Z,24.64
2022-08-25T03:07:46.372Z,24.57
2022-08-25T03:09:49.925Z,24.10
2022-08-25T03:11:53.385Z,23.79
2022-08-25T03:13:57.114Z,23.82
2022-08-25T03:16:01.384Z,23.66
2022-08-25T03:18:08.721Z,23.60
2022-08-25T03:20:12.374Z,23.66
2022-08-25T03:22:15.925Z,23.79
2022-08-25T03:24:19.432Z,23.59
2022-08-25T03:26:40.871Z,23.89
2022-08-25T03:28:44.251Z,23.83
2022-08-25T03:30:47.838Z,23.83
2022-08-25T03:32:59.285Z,23.96
2022-08-25T03:35:04.178Z,23.99
2022-08-25T03:37:08.560Z,24.09
2022-08-25T03:39:12.167Z,24.14
2022-08-25T03:41:17.904Z,24.14
2022-08-25T03:43:22.382Z,24.03
2022-08-25T03:45:26.837Z,24.01
2022-08-25T03:47:31.167Z,24.05
2022-08-25T03:49:34.585Z,23.98
2022-08-25T03:51:43.226Z,23.98
2022-08-25T03:53:46.641Z,23.87
2022-08-25T03:55:50.075Z,23.55
2022-08-25T03:57:55.261Z,23.26
2022-08-25T03:59:58.737Z,23.24
2022-08-25T04:02:02.837Z,23.36
2022-08-25T04:04:07.734Z,23.42
2022-08-25T04:06:11.629Z,23.60
2022-08-25T04:08:16.390Z,23.69
2022-08-25T04:10:22.648Z,23.77
2022-08-25T04:12:26.366Z,23.80
2022-08-25T04:14:29.950Z,23.92
2022-08-25T04:16:36.244Z,23.92
2022-08-25T04:18:44.878Z,23.82
2022-08-25T04:20:48.444Z,23.71
2022-08-25T04:22:51.961Z,23.78
2022-08-25T04:24:56.722Z,23.69
2022-08-25T04:27:00.372Z,23.83
2022-08-25T04:29:05.349Z,23.77
2022-08-25T04:31:09.967Z,23.69
2022-08-25T04:33:13.816Z,23.48
2022-08-25T04:35:17.430Z,23.41
2022-08-25T04:37:20.890Z,23.47
2022-08-25T04:39:24.364Z,23.42
2022-08-25T04:41:30.116Z,23.61
2022-08-25T04:43:34.714Z,23.66
2022-08-25T04:45:39.562Z,23.59
2022-08-25T04:47:43.265Z,23.63
2022-08-25T04:49:46.784Z,23.75
2022-08-25T04:51:52.455Z,23.84
2022-08-25T04:53:56.601Z,23.92
2022-08-25T04:56:03.650Z,24.02
2022-08-25T04:58:12.047Z,23.99
2022-08-25T05:00:19.150Z,23.94
2022-08-25T05:02:22.843Z,23.75
2022-08-25T05:04:28.873Z,23.55
2022-08-25T05:06:33.064Z,23.35
2022-08-25T05:08:37.313Z,23.28
2022-08-25T05:10:43.389Z,23.30
2022-08-25T05:12:47.891Z,23.23
2022-08-25T05:14:54.666Z,23.30
2022-08-25T05:16:58.990Z,23.34
2022-08-25T05:19:02.423Z,23.30
2022-08-25T05:21:08.744Z,23.30
2022-08-25T05:23:12.515Z,23.43
2022-08-25T05:25:16.041Z,23.54
2022-08-25T05:27:19.398Z,23.63
2022-08-25T05:29:22.933Z,23.80
2022-08-25T05:31:29.089Z,23.77
2022-08-25T05:33:32.792Z,23.92
2022-08-25T05:35:36.919Z,23.74
2022-08-25T05:37:40.488Z,23.76
2022-08-25T05:39:43.892Z,23.59
2022-08-25T05:41:47.299Z,23.50
2022-08-25T05:43:50.890Z,23.50
2022-08-25T05:45:55.036Z,23.49
2022-08-25T05:48:00.260Z,23.56
2022-08-25T05:50:03.790Z,23.78
2022-08-25T05:52:07.395Z,23.57
2022-08-25T05:54:10.906Z,23.76
2022-08-25T05:56:17.141Z,23.78
2022-08-25T05:58:20.751Z,23.68
2022-08-25T06:00:24.190Z,23.65
2022-08-25T06:02:43.604Z,23.67
2022-08-25T06:04:48.490Z,23.71
2022-08-25T06:06:53.875Z,23.66
2022-08-25T06:08:57.389Z,23.59
2022-08-25T06:11:00.848Z,23.58
2022-08-25T06:13:06.430Z,23.59
2022-08-25T06:15:11.485Z,23.59
2022-08-25T06:17:15.060Z,23.64
2022-08-25T06:19:19.375Z,23.78
2022-08-25T06:21:24.208Z,23.79
2022-08-25T06:23:27.684Z,23.88
2022-08-25T06:25:33.662Z,23.95
2022-08-25T06:27:37.754Z,24.01
2022-08-25T06:29:41.303Z,24.06
2022-08-25T06:31:46.002Z,24.10
2022-08-25T06:33:50.230Z,23.80
2022-08-25T06:35:55.226Z,24.16
2022-08-25T06:38:00.403Z,24.24
2022-08-25T06:40:04.755Z,24.31
2022-08-25T06:42:08.537Z,24.17
2022-08-25T06:44:13.239Z,24.42
2022-08-25T06:46:19.537Z,24.53
2022-08-25T06:48:23.950Z,24.55
2022-08-25T06:50:27.462Z,24.48
2022-08-25T06:52:31.579Z,24.31
2022-08-25T06:54:36.885Z,24.46
2022-08-25T06:56:41.951Z,24.53
2022-08-25T06:58:45.748Z,24.67
2022-08-25T07:00:49.273Z,24.70
2022-08-25T07:02:52.806Z,24.61
2022-08-25T07:05:00.427Z,24.52
2022-08-25T07:07:05.131Z,24.43
2022-08-25T07:09:10.415Z,24.49
2022-08-25T07:11:16.564Z,24.61
2022-08-25T07:13:20.988Z,24.74
2022-08-25T07:15:24.412Z,24.90
2022-08-25T07:17:28.237Z,24.91
2022-08-25T07:19:32.106Z,24.92
2022-08-25T07:21:38.319Z,24.98
2022-08-25T07:23:42.263Z,24.93
2022-08-25T07:25:45.736Z,24.98
2022-08-25T07:27:50.709Z,25.10
2022-08-25T07:29:54.238Z,25.07
2022-08-25T07:31:57.760Z,25.16
2022-08-25T07:34:18.667Z,25.16
2022-08-25T07:36:22.722Z,25.14
2022-08-25T07:38:26.298Z,25.11
2022-08-25T07:40:31.861Z,25.14
2022-08-25T07:42:36.248Z,25.16
2022-08-25T07:44:43.463Z,25.12
2022-08-25T07:46:47.015Z,25.20
2022-08-25T07:48:53.196Z,25.45
2022-08-25T07:50:57.020Z,25.61
2022-08-25T07:53:00.955Z,25.60
2022-08-25T07:55:08.127Z,25.77
2022-08-25T07:57:11.882Z,25.87
2022-08-25T07:59:15.380Z,25.84
2022-08-25T08:01:23.145Z,25.93
2022-08-25T08:03:44.730Z,26.06
2022-08-25T08:05:49.098Z,26.15
2022-08-25T08:07:52.917Z,26.17
2022-08-25T08:10:19.196Z,26.27
2022-08-25T08:12:20.839Z,26.26
2022-08-25T08:14:26.204Z,26.28
2022-08-25T08:16:32.953Z,26.23
2022-08-25T08:18:36.577Z,26.22
2022-08-25T08:20:42.698Z,26.32
2022-08-25T08:22:46.503Z,26.43
2022-08-25T08:24:54.794Z,26.53
2022-08-25T08:26:59.835Z,26.60
2022-08-25T08:29:03.300Z,26.65
2022-08-25T08:31:06.997Z,26.69
2022-08-25T08:33:15.757Z,26.69
2022-08-25T08:35:19.845Z,26.74
2022-08-25T08:37:23.638Z,26.78
2022-08-25T08:39:31.072Z,26.91
2022-08-25T08:42:16.940Z,26.98
2022-08-25T08:44:30.403Z,27.17
2022-08-25T08:46:41.832Z,27.29
2022-08-25T08:48:57.415Z,27.40
2022-08-25T08:51:12.844Z,27.47
2022-08-25T08:53:24.655Z,27.46
2022-08-25T08:55:33.145Z,27.56
2022-08-25T08:57:46.008Z,27.29
2022-08-25T08:59:55.009Z,27.49
2022-08-25T09:02:01.048Z,27.39
2022-08-25T09:04:10.887Z,27.49
2022-08-25T09:06:29.299Z,27.59
2022-08-25T09:08:33.017Z,27.73
2022-08-25T09:10:50.593Z,27.90
2022-08-25T09:13:05.886Z,28.03
2022-08-25T09:15:24.907Z,28.10
2022-08-25T09:17:42.950Z,28.07
2022-08-25T09:20:19.008Z,28.16
2022-08-25T09:22:34.865Z,28.32
2022-08-25T09:24:55.681Z,28.41
2022-08-25T09:27:11.283Z,28.41
2022-08-25T09:29:20.749Z,28.40
2022-08-25T09:31:29.893Z,28.35
2022-08-25T09:33:35.801Z,28.56
2022-08-25T09:35:41.757Z,28.57
2022-08-25T09:37:57.090Z,28.72
2022-08-25T09:40:02.003Z,28.85
2022-08-25T09:42:06.075Z,28.94
2022-08-25T09:44:19.269Z,29.01
2022-08-25T09:46:27.812Z,29.04
2022-08-25T09:48:39.795Z,29.06
2022-08-25T09:50:46.767Z,29.05
2022-08-25T09:52:53.573Z,29.06
2022-08-25T09:55:00.502Z,29.01
2022-08-25T09:57:08.716Z,29.15
2022-08-25T09:59:34.632Z,29.28
2022-08-25T10:01:50.093Z,29.35
2022-08-25T10:04:02.823Z,29.32
2022-08-25T10:06:13.752Z,29.48
2022-08-25T10:08:30.323Z,29.50
2022-08-25T10:10:41.875Z,29.42
2022-08-25T10:12:51.054Z,29.38
2022-08-25T10:14:54.799Z,29.40
2022-08-25T10:17:15.094Z,29.56
2022-08-25T10:19:27.191Z,29.73
2022-08-25T10:21:31.948Z,29.71
2022-08-25T10:23:38.442Z,29.95
2022-08-25T10:25:59.444Z,30.00
2022-08-25T10:28:16.188Z,30.05
2022-08-25T10:30:24.294Z,30.13
2022-08-25T10:32:42.784Z,30.06
2022-08-25T10:34:51.550Z,29.91
2022-08-25T10:37:05.200Z,30.17
2022-08-25T10:39:34.423Z,30.38
2022-08-25T10:41:51.250Z,30.56
2022-08-25T10:44:31.863Z,30.82
2022-08-25T10:46:41.360Z,30.70
2022-08-25T10:48:57.141Z,30.63
2022-08-25T10:51:08.076Z,30.78
2022-08-25T10:53:26.668Z,30.95
2022-08-25T10:55:40.280Z,30.77
2022-08-25T10:57:56.197Z,30.86
2022-08-25T11:00:06.939Z,30.85
2022-08-25T11:02:49.170Z,30.95
2022-08-25T11:05:03.995Z,31.05
2022-08-25T11:07:13.094Z,31.13
2022-08-25T11:09:24.450Z,31.24
2022-08-25T11:11:38.075Z,31.22
2022-08-25T11:13:47.491Z,31.36
2022-08-25T11:16:16.009Z,31.55
2022-08-25T11:18:20.206Z,31.77
2022-08-25T11:20:30.004Z,32.05
2022-08-25T11:22:42.302Z,32.17
2022-08-25T11:25:01.001Z,32.18
2022-08-25T11:27:13.811Z,32.21
2022-08-25T11:29:21.819Z,32.29
2022-08-25T11:31:27.882Z,32.07
2022-08-25T11:33:33.056Z,32.02
2022-08-25T11:35:41.906Z,32.15
2022-08-25T11:37:58.742Z,32.31
2022-08-25T11:40:19.925Z,32.55
2022-08-25T11:42:46.991Z,32.64
2022-08-25T11:45:00.677Z,32.78
2022-08-25T11:47:32.130Z,32.79
2022-08-25T11:49:52.084Z,32.56
2022-08-25T11:51:55.588Z,32.83
2022-08-25T11:54:19.681Z,32.99
2022-08-25T11:56:37.735Z,32.91
2022-08-25T11:58:50.150Z,32.87
2022-08-25T12:00:53.971Z,32.81
2022-08-25T12:03:01.448Z,33.12
2022-08-25T12:05:07.475Z,33.38
2022-08-25T12:07:22.038Z,33.48
2022-08-25T12:09:25.607Z,33.13
2022-08-25T12:11:58.092Z,33.24
2022-08-25T12:14:34.848Z,33.31
2022-08-25T12:16:43.795Z,33.34
2022-08-25T12:18:50.537Z,33.40
2022-08-25T12:21:30.941Z,33.64
2022-08-25T12:23:37.249Z,33.70
2022-08-25T12:25:51.915Z,33.75
2022-08-25T12:28:09.113Z,33.80
2022-08-25T12:30:21.064Z,34.00
2022-08-25T12:32:50.110Z,34.07
2022-08-25T12:35:24.653Z,34.20
2022-08-25T12:37:28.680Z,34.19
2022-08-25T12:39:36.606Z,34.29
2022-08-25T12:41:54.818Z,34.36
2022-08-25T12:44:20.453Z,34.44
2022-08-25T12:46:44.654Z,34.37
2022-08-25T12:49:00.277Z,34.43
2022-08-25T12:51:06.103Z,34.28
2022-08-25T12:53:16.740Z,34.05
2022-08-25T12:55:23.384Z,34.03
2022-08-25T12:57:45.771Z,34.20
2022-08-25T12:59:54.183Z,34.28
2022-08-25T13:02:15.492Z,34.46
2022-08-25T13:04:41.495Z,34.73
2022-08-25T13:07:04.354Z,34.69
2022-08-25T13:10:01.211Z,34.71
2022-08-25T13:12:22.667Z,34.82
2022-08-25T13:14:34.787Z,34.65
2022-08-25T13:16:53.810Z,34.67
2022-08-25T13:19:01.471Z,34.74
2022-08-25T13:21:14.690Z,35.12
2022-08-25T13:23:27.670Z,34.98
2022-08-25T13:25:34.582Z,35.00
2022-08-25T13:27:40.471Z,35.00
2022-08-25T13:29:52.736Z,34.84
2022-08-25T13:31:59.632Z,35.02
2022-08-25T13:34:07.479Z,35.32
2022-08-25T13:36:35.488Z,35.56
2022-08-25T13:38:39.210Z,35.78
2022-08-25T13:40:43.335Z,35.62
2022-08-25T13:42:55.589Z,35.30
2022-08-25T13:44:59.693Z,35.44
2022-08-25T13:47:11.134Z,35.50
2022-08-25T13:49:26.263Z,35.57
2022-08-25T13:51:31.572Z,35.79
2022-08-25T13:53:35.324Z,35.24
2022-08-25T13:55:51.496Z,35.65
2022-08-25T13:57:55.672Z,36.07
2022-08-25T14:00:02.996Z,35.96
2022-08-25T14:02:19.269Z,36.04
2022-08-25T14:04:33.090Z,35.61
2022-08-25T14:06:36.567Z,35.57
2022-08-25T14:08:43.280Z,35.62
2022-08-25T14:10:47.635Z,35.90
2022-08-25T14:13:10.269Z,36.23
2022-08-25T14:15:29.519Z,36.31
2022-08-25T14:17:40.791Z,36.02
2022-08-25T14:19:47.619Z,35.76
2022-08-25T14:21:56.693Z,35.61
2022-08-25T14:24:01.098Z,35.54
2022-08-25T14:26:04.914Z,35.82
2022-08-25T14:28:14.913Z,35.70
2022-08-25T14:30:18.351Z,35.76
2022-08-25T14:32:32.551Z,35.80
2022-08-25T14:34:41.838Z,36.02
2022-08-25T14:36:45.982Z,36.30
2022-08-25T14:38:54.915Z,36.13
2022-08-25T14:40:59.242Z,35.92
2022-08-25T14:43:03.028Z,35.93
2022-08-25T14:45:08.346Z,36.01
2022-08-25T14:47:11.858Z,36.06
2022-08-25T14:49:24.995Z,36.08
2022-08-25T14:51:32.530Z,36.01
2022-08-25T14:53:36.256Z,36.32
2022-08-25T14:55:40.003Z,36.73
2022-08-25T14:57:43.515Z,36.91
2022-08-25T14:59:47.488Z,36.93
2022-08-25T15:01:51.015Z,37.02
2022-08-25T15:03:57.886Z,37.02
2022-08-25T15:06:02.313Z,37.11
2022-08-25T15:08:32.909Z,37.47
2022-08-25T15:10:36.784Z,37.37
2022-08-25T15:12:47.349Z,37.31
2022-08-25T15:14:51.557Z,37.08
2022-08-25T15:16:57.719Z,37.00
2022-08-25T15:19:01.677Z,36.08
2022-08-25T15:21:09.946Z,36.02
2022-08-25T15:23:14.723Z,36.33
2022-08-25T15:25:18.629Z,36.49
2022-08-25T15:27:23.886Z,36.45
2022-08-25T15:29:29.741Z,36.91
2022-08-25T15:31:33.297Z,36.99
2022-08-25T15:33:36.759Z,36.80
2022-08-25T15:35:41.099Z,36.82
2022-08-25T15:37:44.560Z,36.74
2022-08-25T15:39:49.510Z,36.52
2022-08-25T15:41:53.204Z,36.75
2022-08-25T15:43:57.979Z,36.68
2022-08-25T15:46:01.926Z,36.56
2022-08-25T15:48:06.964Z,36.27
2022-08-25T15:50:17.249Z,36.34
2022-08-25T15:52:21.043Z,36.27
2022-08-25T15:54:26.655Z,35.85
2022-08-25T15:56:31.868Z,35.89
2022-08-25T15:58:36.084Z,35.48
2022-08-25T16:00:39.536Z,35.64
2022-08-25T16:02:43.324Z,35.90
2022-08-25T16:04:49.958Z,36.22
2022-08-25T16:06:54.465Z,36.28
2022-08-25T16:08:59.251Z,36.56
2022-08-25T16:11:03.117Z,36.80
2022-08-25T16:13:09.537Z,36.88
2022-08-25T16:15:13.455Z,36.99
2022-08-25T16:17:16.999Z,37.24
2022-08-25T16:19:20.440Z,36.82
2022-08-25T16:21:29.082Z,36.91
2022-08-25T16:23:33.529Z,36.53
2022-08-25T16:25:40.418Z,36.34
2022-08-25T16:27:46.511Z,36.12
2022-08-25T16:29:52.431Z,36.27
2022-08-25T16:31:56.815Z,36.57
2022-08-25T16:34:01.450Z,36.92
2022-08-25T16:36:07.432Z,37.13
2022-08-25T16:38:12.726Z,37.30
2022-08-25T16:40:18.559Z,37.43
2022-08-25T16:42:22.086Z,37.34
2022-08-25T16:44:25.837Z,37.26
2022-08-25T16:46:31.409Z,37.38
2022-08-25T16:48:36.097Z,37.35
2022-08-25T16:50:41.550Z,37.39
2022-08-25T16:53:02.854Z,36.73
2022-08-25T16:55:14.761Z,36.52
2022-08-25T16:57:18.292Z,36.56
2022-08-25T16:59:22.149Z,36.71
2022-08-25T17:01:29.100Z,36.77
2022-08-25T17:03:34.520Z,36.76
2022-08-25T17:05:42.630Z,36.60
2022-08-25T17:08:07.747Z,35.84
2022-08-25T17:10:12.913Z,35.54
2022-08-25T17:12:16.494Z,35.50
2022-08-25T17:14:20.383Z,35.48
2022-08-25T17:16:27.799Z,35.34
2022-08-25T17:18:34.371Z,35.35
2022-08-25T17:20:38.214Z,35.20
2022-08-25T17:22:43.803Z,35.41
2022-08-25T17:24:59.384Z,35.60
2022-08-25T17:27:04.853Z,35.17
2022-08-25T17:29:10.242Z,34.93
2022-08-25T17:31:15.726Z,34.99
2022-08-25T17:33:23.869Z,34.87
2022-08-25T17:35:29.324Z,34.65
2022-08-25T17:37:32.989Z,34.57
2022-08-25T17:39:36.846Z,34.59
2022-08-25T17:41:40.785Z,34.62
2022-08-25T17:43:44.561Z,34.63
2022-08-25T17:45:48.826Z,34.58
2022-08-25T17:47:52.690Z,34.36
2022-08-25T17:49:57.123Z,34.18
2022-08-25T17:52:02.636Z,34.17
2022-08-25T17:54:06.249Z,34.07
2022-08-25T17:56:13.611Z,33.94
2022-08-25T17:58:17.889Z,33.88
2022-08-25T18:00:23.646Z,33.91
2022-08-25T18:02:27.262Z,33.73
2022-08-25T18:04:31.807Z,33.70
2022-08-25T18:06:35.752Z,33.65
2022-08-25T18:08:40.563Z,33.58
2022-08-25T18:10:44.199Z,33.48
2022-08-25T18:12:47.762Z,33.42
2022-08-25T18:14:51.609Z,33.42
2022-08-25T18:16:56.816Z,33.41
2022-08-25T18:19:00.584Z,33.44
2022-08-25T18:21:05.769Z,33.36
2022-08-25T18:23:10.322Z,33.41
2022-08-25T18:25:16.891Z,33.42
2022-08-25T18:27:21.686Z,33.37
2022-08-25T18:29:25.701Z,33.28
2022-08-25T18:31:31.002Z,33.17
2022-08-25T18:33:35.874Z,33.05
2022-08-25T18:35:39.521Z,33.00
2022-08-25T18:38:00.628Z,32.97
2022-08-25T18:40:24.163Z,32.92
2022-08-25T18:42:29.269Z,32.90
2022-08-25T18:44:33.307Z,32.79
2022-08-25T18:46:36.772Z,32.71
2022-08-25T18:48:41.678Z,32.64
2022-08-25T18:50:46.501Z,32.58
2022-08-25T18:52:55.156Z,32.49
2022-08-25T18:55:00.260Z,32.41
2022-08-25T18:57:08.768Z,32.33
2022-08-25T18:59:13.998Z,32.11
2022-08-25T19:01:19.704Z,32.22
2022-08-25T19:03:23.522Z,32.19
2022-08-25T19:05:31.748Z,32.08
2022-08-25T19:07:36.619Z,31.99
2022-08-25T19:09:43.828Z,31.94
2022-08-25T19:11:48.257Z,31.84
2022-08-25T19:13:52.171Z,31.67
2022-08-25T19:15:57.540Z,31.65
2022-08-25T19:18:01.718Z,31.58
2022-08-25T19:20:05.665Z,31.43
2022-08-25T19:22:38.054Z,31.42
2022-08-25T19:24:38.372Z,31.30
2022-08-25T19:26:42.527Z,31.27
2022-08-25T19:28:48.914Z,31.16
2022-08-25T19:30:52.995Z,31.19
2022-08-25T19:32:58.494Z,31.10
2022-08-25T19:35:02.300Z,31.00
2022-08-25T19:37:06.920Z,30.94
2022-08-25T19:39:15.577Z,30.81
2022-08-25T19:41:21.251Z,30.67
2022-08-25T19:43:24.691Z,30.49
2022-08-25T19:45:28.142Z,30.35
2022-08-25T19:47:32.294Z,30.15
2022-08-25T19:49:37.926Z,30.08
2022-08-25T19:51:44.616Z,30.14
2022-08-25T19:53:52.311Z,30.11
2022-08-25T19:55:59.943Z,29.59
2022-08-25T19:58:03.586Z,29.21
2022-08-25T20:00:09.146Z,29.10
2022-08-25T20:02:18.992Z,29.16
2022-08-25T20:04:24.537Z,29.31
2022-08-25T20:06:31.142Z,29.14
2022-08-25T20:08:34.598Z,29.12
2022-08-25T20:10:42.127Z,29.27
2022-08-25T20:12:45.682Z,29.28
2022-08-25T20:14:49.671Z,29.22
2022-08-25T20:16:53.220Z,29.08
2022-08-25T20:18:56.706Z,29.38
2022-08-25T20:21:00.945Z,29.39
2022-08-25T20:23:23.022Z,29.39
2022-08-25T20:25:28.008Z,29.45
2022-08-25T20:27:43.079Z,29.46
2022-08-25T20:29:46.705Z,29.50
2022-08-25T20:31:50.226Z,29.40
2022-08-25T20:33:57.380Z,29.37
2022-08-25T20:36:04.790Z,29.40
2022-08-25T20:38:09.959Z,29.47
2022-08-25T20:40:16.136Z,29.44
2022-08-25T20:42:20.477Z,29.40
2022-08-25T20:44:23.866Z,29.32
2022-08-25T20:46:28.007Z,29.33
2022-08-25T20:48:31.786Z,29.37
2022-08-25T20:50:35.870Z,29.36
2022-08-25T20:52:42.528Z,29.14
2022-08-25T20:54:50.552Z,29.07
2022-08-25T20:56:56.375Z,28.84
2022-08-25T20:59:00.419Z,28.85
2022-08-25T21:01:03.963Z,28.77
2022-08-25T21:03:07.363Z,28.80
2022-08-25T21:05:10.839Z,28.76
2022-08-25T21:07:14.257Z,28.79
2022-08-25T21:09:22.821Z,28.76
2022-08-25T21:11:27.617Z,28.76
2022-08-25T21:13:32.257Z,28.73
2022-08-25T21:15:35.681Z,28.81
2022-08-25T21:17:39.584Z,28.74
2022-08-25T21:19:43.702Z,28.76
2022-08-25T21:21:47.157Z,28.76
2022-08-25T21:23:52.364Z,28.77
2022-08-25T21:25:56.348Z,28.70
2022-08-25T21:28:01.422Z,28.70
2022-08-25T21:30:05.751Z,28.67
2022-08-25T21:32:10.667Z,28.65
2022-08-25T21:34:15.950Z,28.68
2022-08-25T21:36:21.184Z,28.66
2022-08-25T21:38:24.766Z,28.62
2022-08-25T21:40:28.290Z,28.56
2022-08-25T21:42:31.738Z,28.50
2022-08-25T21:44:36.528Z,28.54
2022-08-25T21:46:40.238Z,28.50
2022-08-25T21:48:43.773Z,28.36
2022-08-25T21:50:47.988Z,28.25
2022-08-25T21:52:54.466Z,28.18
2022-08-25T21:54:58.372Z,28.20
2022-08-25T21:57:04.945Z,28.19
2022-08-25T21:59:10.391Z,28.07
2022-08-25T22:01:17.529Z,28.10
2022-08-25T22:03:22.592Z,28.09
2022-08-25T22:05:26.721Z,28.05
2022-08-25T22:07:34.742Z,28.05
2022-08-25T22:09:44.355Z,27.99
2022-08-25T22:11:47.885Z,27.98
2022-08-25T22:13:53.041Z,27.98
2022-08-25T22:15:58.090Z,27.91
2022-08-25T22:18:02.984Z,27.85
2022-08-25T22:20:07.840Z,27.84
2022-08-25T22:22:11.295Z,27.88
2022-08-25T22:24:14.748Z,27.92
2022-08-25T22:26:22.088Z,27.80
2022-08-25T22:28:26.944Z,27.74
2022-08-25T22:30:32.592Z,27.68
2022-08-25T22:32:36.072Z,27.66
2022-08-25T22:34:40.890Z,27.71
2022-08-25T22:36:48.038Z,27.65
2022-08-25T22:38:53.419Z,27.63
2022-08-25T22:41:03.174Z,27.67
2022-08-25T22:43:08.320Z,27.55
2022-08-25T22:45:14.310Z,27.49
2022-08-25T22:47:18.798Z,27.51
2022-08-25T22:49:22.606Z,27.50
2022-08-25T22:51:31.543Z,27.52
2022-08-25T22:53:35.229Z,27.53
2022-08-25T22:55:44.019Z,27.49
2022-08-25T22:57:47.718Z,27.36
2022-08-25T22:59:51.434Z,27.33
2022-08-25T23:01:55.287Z,27.38
2022-08-25T23:03:59.344Z,27.35
2022-08-25T23:06:02.922Z,27.35
2022-08-25T23:08:09.914Z,27.29
2022-08-25T23:10:14.116Z,27.21
2022-08-25T23:12:18.381Z,27.12
2022-08-25T23:14:23.991Z,27.08
2022-08-25T23:16:28.376Z,26.96
2022-08-25T23:18:32.451Z,26.99
2022-08-25T23:20:53.360Z,26.95
2022-08-25T23:22:56.832Z,27.05
2022-08-25T23:25:01.933Z,26.96
2022-08-25T23:27:08.209Z,27.02
2022-08-25T23:29:18.742Z,27.12
2022-08-25T23:31:22.601Z,27.13
2022-08-25T23:33:27.575Z,27.04
2022-08-25T23:35:31.139Z,26.90
2022-08-25T23:37:35.104Z,26.53
2022-08-25T23:39:40.663Z,26.84
2022-08-25T23:41:45.596Z,26.96
2022-08-25T23:43:49.946Z,27.04
2022-08-25T23:45:53.416Z,26.97
2022-08-25T23:47:57.122Z,26.91
2022-08-25T23:50:01.510Z,26.87
2022-08-25T23:52:05.216Z,27.02
2022-08-25T23:54:11.991Z,26.83
2022-08-25T23:56:15.388Z,26.89
2022-08-25T23:58:20.569Z,26.79
